sensor_id;sensor_type;location;lat;lon;timestamp;temperature;humidity
30097;DHT22;16915;51.466;3.610;2022-11-28T00:00:15;8.60;99.90
30097;DHT22;16915;51.466;3.610;2022-11-28T00:02:41;8.50;99.90
30097;DHT22;16915;51.466;3.610;2022-11-28T00:05:10;8.60;99.90
30097;DHT22;16915;51.466;3.610;2022-11-28T00:07:36;8.50;99.90
30097;DHT22;16915;51.466;3.610;2022-11-28T00:10:02;8.50;99.90
30097;DHT22;16915;51.466;3.610;2022-11-28T00:12:28;8.60;99.90
30097;DHT22;16915;51.466;3.610;2022-11-28T00:14:54;8.60;99.90
30097;DHT22;16915;51.466;3.610;2022-11-28T00:17:19;8.60;99.90
30097;DHT22;16915;51.466;3.610;2022-11-28T00:19:45;8.60;99.90
30097;DHT22;16915;51.466;3.610;2022-11-28T00:22:11;8.60;99.90
30097;DHT22;16915;51.466;3.610;2022-11-28T00:24:36;8.60;99.90
30097;DHT22;16915;51.466;3.610;2022-11-28T00:27:03;8.70;99.90
30097;DHT22;16915;51.466;3.610;2022-11-28T00:29:29;8.60;99.90
30097;DHT22;16915;51.466;3.610;2022-11-28T00:31:54;8.60;99.90
30097;DHT22;16915;51.466;3.610;2022-11-28T00:34:20;8.70;99.90
30097;DHT22;16915;51.466;3.610;2022-11-28T00:36:46;8.70;99.90
30097;DHT22;16915;51.466;3.610;2022-11-28T00:39:13;8.70;99.90
30097;DHT22;16915;51.466;3.610;2022-11-28T00:41:39;8.70;99.90
30097;DHT22;16915;51.466;3.610;2022-11-28T00:44:05;8.70;99.90
30097;DHT22;16915;51.466;3.610;2022-11-28T00:46:31;8.70;99.90
30097;DHT22;16915;51.466;3.610;2022-11-28T00:48:57;8.70;99.90
30097;DHT22;16915;51.466;3.610;2022-11-28T00:51:25;8.70;99.90
30097;DHT22;16915;51.466;3.610;2022-11-28T00:53:53;8.70;99.90
30097;DHT22;16915;51.466;3.610;2022-11-28T00:56:22;8.70;99.90
30097;DHT22;16915;51.466;3.610;2022-11-28T00:58:49;8.70;99.90
30097;DHT22;16915;51.466;3.610;2022-11-28T01:01:18;8.70;99.90
30097;DHT22;16915;51.466;3.610;2022-11-28T01:03:45;8.70;99.90
30097;DHT22;16915;51.466;3.610;2022-11-28T01:06:11;8.70;99.90
30097;DHT22;16915;51.466;3.610;2022-11-28T01:08:37;8.70;99.90
30097;DHT22;16915;51.466;3.610;2022-11-28T01:11:03;8.70;99.90
30097;DHT22;16915;51.466;3.610;2022-11-28T01:13:34;8.70;99.90
30097;DHT22;16915;51.466;3.610;2022-11-28T01:16:00;8.70;99.90
30097;DHT22;16915;51.466;3.610;2022-11-28T01:18:25;8.70;99.90
30097;DHT22;16915;51.466;3.610;2022-11-28T01:20:51;8.70;99.90
30097;DHT22;16915;51.466;3.610;2022-11-28T01:23:16;8.70;99.90
30097;DHT22;16915;51.466;3.610;2022-11-28T01:25:43;8.70;99.90
30097;DHT22;16915;51.466;3.610;2022-11-28T01:28:09;8.70;99.90
30097;DHT22;16915;51.466;3.610;2022-11-28T01:30:34;8.70;99.90
30097;DHT22;16915;51.466;3.610;2022-11-28T01:33:00;8.70;99.90
30097;DHT22;16915;51.466;3.610;2022-11-28T01:35:26;8.70;99.90
30097;DHT22;16915;51.466;3.610;2022-11-28T01:37:51;8.60;99.90
30097;DHT22;16915;51.466;3.610;2022-11-28T01:40:17;8.70;99.90
30097;DHT22;16915;51.466;3.610;2022-11-28T01:42:43;8.70;99.90
30097;DHT22;16915;51.466;3.610;2022-11-28T01:45:29;8.70;99.90
30097;DHT22;16915;51.466;3.610;2022-11-28T01:47:59;8.70;99.90
30097;DHT22;16915;51.466;3.610;2022-11-28T01:50:27;8.70;99.90
30097;DHT22;16915;51.466;3.610;2022-11-28T01:52:58;8.70;99.90
30097;DHT22;16915;51.466;3.610;2022-11-28T01:55:26;8.70;99.90
30097;DHT22;16915;51.466;3.610;2022-11-28T01:57:54;8.70;99.90
30097;DHT22;16915;51.466;3.610;2022-11-28T02:00:21;8.70;99.90
30097;DHT22;16915;51.466;3.610;2022-11-28T02:02:50;8.60;99.90
30097;DHT22;16915;51.466;3.610;2022-11-28T02:05:18;8.60;99.90
30097;DHT22;16915;51.466;3.610;2022-11-28T02:07:45;8.60;99.90
30097;DHT22;16915;51.466;3.610;2022-11-28T02:10:15;8.60;99.90
30097;DHT22;16915;51.466;3.610;2022-11-28T02:36:50;8.50;99.90
30097;DHT22;16915;51.466;3.610;2022-11-28T02:39:44;8.50;99.90
30097;DHT22;16915;51.466;3.610;2022-11-28T02:42:19;8.40;99.90
30097;DHT22;16915;51.466;3.610;2022-11-28T02:47:32;8.40;99.90
30097;DHT22;16915;51.466;3.610;2022-11-28T02:50:04;8.40;99.90
30097;DHT22;16915;51.466;3.610;2022-11-28T02:52:39;8.40;99.90
30097;DHT22;16915;51.466;3.610;2022-11-28T02:55:07;8.40;99.90
30097;DHT22;16915;51.466;3.610;2022-11-28T02:57:40;8.40;99.90
30097;DHT22;16915;51.466;3.610;2022-11-28T03:00:28;8.40;99.90
30097;DHT22;16915;51.466;3.610;2022-11-28T03:11:33;8.40;99.90
30097;DHT22;16915;51.466;3.610;2022-11-28T03:16:55;8.40;99.90
30097;DHT22;16915;51.466;3.610;2022-11-28T03:19:30;8.40;99.90
30097;DHT22;16915;51.466;3.610;2022-11-28T03:22:09;8.40;99.90
30097;DHT22;16915;51.466;3.610;2022-11-28T03:24:43;8.40;99.90
30097;DHT22;16915;51.466;3.610;2022-11-28T03:29:53;8.40;99.90
30097;DHT22;16915;51.466;3.610;2022-11-28T03:32:31;8.50;99.90
30097;DHT22;16915;51.466;3.610;2022-11-28T03:35:17;8.50;99.90
30097;DHT22;16915;51.466;3.610;2022-11-28T03:37:47;8.50;99.90
30097;DHT22;16915;51.466;3.610;2022-11-28T03:40:17;8.50;99.90
30097;DHT22;16915;51.466;3.610;2022-11-28T03:42:53;8.50;99.90
30097;DHT22;16915;51.466;3.610;2022-11-28T03:45:24;8.50;99.90
30097;DHT22;16915;51.466;3.610;2022-11-28T03:48:22;8.40;99.90
30097;DHT22;16915;51.466;3.610;2022-11-28T03:50:49;8.40;99.90
30097;DHT22;16915;51.466;3.610;2022-11-28T03:53:22;8.50;99.90
30097;DHT22;16915;51.466;3.610;2022-11-28T03:56:06;8.50;99.90
30097;DHT22;16915;51.466;3.610;2022-11-28T04:04:28;8.50;99.90
30097;DHT22;16915;51.466;3.610;2022-11-28T04:07:04;8.50;99.90
30097;DHT22;16915;51.466;3.610;2022-11-28T04:09:48;8.50;99.90
30097;DHT22;16915;51.466;3.610;2022-11-28T04:12:52;8.50;99.90
30097;DHT22;16915;51.466;3.610;2022-11-28T04:15:55;8.50;99.90
30097;DHT22;16915;51.466;3.610;2022-11-28T04:20:52;8.50;99.90
30097;DHT22;16915;51.466;3.610;2022-11-28T04:23:20;8.50;99.90
30097;DHT22;16915;51.466;3.610;2022-11-28T04:26:01;8.50;99.90
30097;DHT22;16915;51.466;3.610;2022-11-28T04:28:30;8.60;99.90
30097;DHT22;16915;51.466;3.610;2022-11-28T04:30:59;8.50;99.90
30097;DHT22;16915;51.466;3.610;2022-11-28T04:33:28;8.60;99.90
30097;DHT22;16915;51.466;3.610;2022-11-28T04:35:56;8.60;99.90
30097;DHT22;16915;51.466;3.610;2022-11-28T04:38:23;8.60;99.90
30097;DHT22;16915;51.466;3.610;2022-11-28T04:40:54;8.60;99.90
30097;DHT22;16915;51.466;3.610;2022-11-28T04:43:28;8.60;99.90
30097;DHT22;16915;51.466;3.610;2022-11-28T04:46:00;8.70;99.90
30097;DHT22;16915;51.466;3.610;2022-11-28T04:48:28;8.70;99.90
30097;DHT22;16915;51.466;3.610;2022-11-28T04:51:17;8.70;99.90
30097;DHT22;16915;51.466;3.610;2022-11-28T04:56:46;8.70;99.90
30097;DHT22;16915;51.466;3.610;2022-11-28T04:59:15;8.70;99.90
30097;DHT22;16915;51.466;3.610;2022-11-28T05:01:43;8.70;99.90
30097;DHT22;16915;51.466;3.610;2022-11-28T05:04:12;8.70;99.90
30097;DHT22;16915;51.466;3.610;2022-11-28T05:06:38;8.80;99.90
30097;DHT22;16915;51.466;3.610;2022-11-28T05:09:03;8.80;99.90
30097;DHT22;16915;51.466;3.610;2022-11-28T05:11:30;8.80;99.90
30097;DHT22;16915;51.466;3.610;2022-11-28T05:13:56;8.80;99.90
30097;DHT22;16915;51.466;3.610;2022-11-28T05:16:22;8.80;99.90
30097;DHT22;16915;51.466;3.610;2022-11-28T05:18:48;8.80;99.90
30097;DHT22;16915;51.466;3.610;2022-11-28T05:21:14;8.80;99.90
30097;DHT22;16915;51.466;3.610;2022-11-28T05:23:42;8.80;99.90
30097;DHT22;16915;51.466;3.610;2022-11-28T05:26:17;8.80;99.90
30097;DHT22;16915;51.466;3.610;2022-11-28T05:28:47;8.80;99.90
30097;DHT22;16915;51.466;3.610;2022-11-28T05:31:14;8.90;99.90
30097;DHT22;16915;51.466;3.610;2022-11-28T05:33:39;8.90;99.90
30097;DHT22;16915;51.466;3.610;2022-11-28T05:36:08;8.90;99.90
30097;DHT22;16915;51.466;3.610;2022-11-28T05:38:34;8.90;99.90
30097;DHT22;16915;51.466;3.610;2022-11-28T05:41:00;8.80;99.90
30097;DHT22;16915;51.466;3.610;2022-11-28T05:43:26;8.90;99.90
30097;DHT22;16915;51.466;3.610;2022-11-28T05:45:53;8.90;99.90
30097;DHT22;16915;51.466;3.610;2022-11-28T05:48:18;8.90;99.90
30097;DHT22;16915;51.466;3.610;2022-11-28T05:50:44;8.90;99.90
30097;DHT22;16915;51.466;3.610;2022-11-28T05:53:10;8.90;99.90
30097;DHT22;16915;51.466;3.610;2022-11-28T05:55:39;8.90;99.90
30097;DHT22;16915;51.466;3.610;2022-11-28T05:58:05;8.80;99.90
30097;DHT22;16915;51.466;3.610;2022-11-28T06:00:31;8.80;99.90
30097;DHT22;16915;51.466;3.610;2022-11-28T06:02:57;8.90;99.90
30097;DHT22;16915;51.466;3.610;2022-11-28T06:05:24;8.80;99.90
30097;DHT22;16915;51.466;3.610;2022-11-28T06:07:50;8.80;99.90
30097;DHT22;16915;51.466;3.610;2022-11-28T06:10:16;8.80;99.90
30097;DHT22;16915;51.466;3.610;2022-11-28T06:12:42;8.80;99.90
30097;DHT22;16915;51.466;3.610;2022-11-28T06:15:08;8.80;99.90
30097;DHT22;16915;51.466;3.610;2022-11-28T06:17:34;8.80;99.90
30097;DHT22;16915;51.466;3.610;2022-11-28T06:19:59;8.80;99.90
30097;DHT22;16915;51.466;3.610;2022-11-28T06:22:25;8.80;99.90
30097;DHT22;16915;51.466;3.610;2022-11-28T06:24:50;8.80;99.90
30097;DHT22;16915;51.466;3.610;2022-11-28T06:27:16;8.80;99.90
30097;DHT22;16915;51.466;3.610;2022-11-28T06:29:42;8.80;99.90
30097;DHT22;16915;51.466;3.610;2022-11-28T06:32:07;8.80;99.90
30097;DHT22;16915;51.466;3.610;2022-11-28T06:34:33;8.80;99.90
30097;DHT22;16915;51.466;3.610;2022-11-28T06:36:59;8.80;99.90
30097;DHT22;16915;51.466;3.610;2022-11-28T06:39:24;8.80;99.90
30097;DHT22;16915;51.466;3.610;2022-11-28T06:41:50;8.80;99.90
30097;DHT22;16915;51.466;3.610;2022-11-28T06:44:16;8.80;99.90
30097;DHT22;16915;51.466;3.610;2022-11-28T06:46:42;8.80;99.90
30097;DHT22;16915;51.466;3.610;2022-11-28T06:49:10;8.80;99.90
30097;DHT22;16915;51.466;3.610;2022-11-28T06:51:38;8.80;99.90
30097;DHT22;16915;51.466;3.610;2022-11-28T06:54:04;8.80;99.90
30097;DHT22;16915;51.466;3.610;2022-11-28T06:56:29;8.80;99.90
30097;DHT22;16915;51.466;3.610;2022-11-28T06:58:56;8.80;99.90
30097;DHT22;16915;51.466;3.610;2022-11-28T07:01:24;8.80;99.90
30097;DHT22;16915;51.466;3.610;2022-11-28T07:03:50;8.80;99.90
30097;DHT22;16915;51.466;3.610;2022-11-28T07:06:19;8.80;99.90
30097;DHT22;16915;51.466;3.610;2022-11-28T07:08:45;8.80;99.90
30097;DHT22;16915;51.466;3.610;2022-11-28T07:13:37;8.80;99.90
30097;DHT22;16915;51.466;3.610;2022-11-28T07:16:03;8.80;99.90
30097;DHT22;16915;51.466;3.610;2022-11-28T07:18:29;8.80;99.90
30097;DHT22;16915;51.466;3.610;2022-11-28T07:20:55;8.80;99.90
30097;DHT22;16915;51.466;3.610;2022-11-28T07:23:20;8.90;99.90
30097;DHT22;16915;51.466;3.610;2022-11-28T07:25:46;8.90;99.90
30097;DHT22;16915;51.466;3.610;2022-11-28T07:28:12;8.80;99.90
30097;DHT22;16915;51.466;3.610;2022-11-28T07:30:37;8.80;99.90
30097;DHT22;16915;51.466;3.610;2022-11-28T07:33:03;8.80;99.90
30097;DHT22;16915;51.466;3.610;2022-11-28T07:35:28;8.80;99.90
30097;DHT22;16915;51.466;3.610;2022-11-28T07:37:54;8.80;99.90
30097;DHT22;16915;51.466;3.610;2022-11-28T07:40:19;8.80;99.90
30097;DHT22;16915;51.466;3.610;2022-11-28T07:42:47;8.80;99.90
30097;DHT22;16915;51.466;3.610;2022-11-28T07:45:13;8.80;99.90
30097;DHT22;16915;51.466;3.610;2022-11-28T07:47:38;8.80;99.90
30097;DHT22;16915;51.466;3.610;2022-11-28T07:50:05;8.80;99.90
30097;DHT22;16915;51.466;3.610;2022-11-28T07:52:30;8.80;99.90
30097;DHT22;16915;51.466;3.610;2022-11-28T07:54:56;8.80;99.90
30097;DHT22;16915;51.466;3.610;2022-11-28T07:57:21;8.90;99.90
30097;DHT22;16915;51.466;3.610;2022-11-28T07:59:47;8.90;99.90
30097;DHT22;16915;51.466;3.610;2022-11-28T08:02:13;8.80;99.90
30097;DHT22;16915;51.466;3.610;2022-11-28T08:04:38;8.90;99.90
30097;DHT22;16915;51.466;3.610;2022-11-28T08:07:04;8.90;99.90
30097;DHT22;16915;51.466;3.610;2022-11-28T08:09:30;8.90;99.90
30097;DHT22;16915;51.466;3.610;2022-11-28T08:11:56;8.90;99.90
30097;DHT22;16915;51.466;3.610;2022-11-28T08:14:23;8.90;99.90
30097;DHT22;16915;51.466;3.610;2022-11-28T08:16:49;8.90;99.90
30097;DHT22;16915;51.466;3.610;2022-11-28T08:19:15;9.00;99.90
30097;DHT22;16915;51.466;3.610;2022-11-28T08:21:41;8.90;99.90
30097;DHT22;16915;51.466;3.610;2022-11-28T08:24:07;9.00;99.90
30097;DHT22;16915;51.466;3.610;2022-11-28T08:26:33;9.00;99.90
30097;DHT22;16915;51.466;3.610;2022-11-28T08:29:00;9.00;99.90
30097;DHT22;16915;51.466;3.610;2022-11-28T08:31:32;8.90;99.90
30097;DHT22;16915;51.466;3.610;2022-11-28T08:34:00;8.90;99.90
30097;DHT22;16915;51.466;3.610;2022-11-28T08:36:26;9.00;99.90
30097;DHT22;16915;51.466;3.610;2022-11-28T08:38:51;9.00;99.90
30097;DHT22;16915;51.466;3.610;2022-11-28T08:41:21;9.00;99.90
30097;DHT22;16915;51.466;3.610;2022-11-28T08:43:48;9.00;99.90
30097;DHT22;16915;51.466;3.610;2022-11-28T08:46:16;8.90;99.90
30097;DHT22;16915;51.466;3.610;2022-11-28T08:48:42;8.90;99.90
30097;DHT22;16915;51.466;3.610;2022-11-28T08:51:11;8.90;99.90
30097;DHT22;16915;51.466;3.610;2022-11-28T08:53:41;8.90;99.90
30097;DHT22;16915;51.466;3.610;2022-11-28T08:56:07;8.90;99.90
30097;DHT22;16915;51.466;3.610;2022-11-28T08:58:33;8.80;99.90
30097;DHT22;16915;51.466;3.610;2022-11-28T09:00:58;8.90;99.90
30097;DHT22;16915;51.466;3.610;2022-11-28T09:03:24;8.80;99.90
30097;DHT22;16915;51.466;3.610;2022-11-28T09:05:50;8.80;99.90
30097;DHT22;16915;51.466;3.610;2022-11-28T09:08:17;8.90;99.90
30097;DHT22;16915;51.466;3.610;2022-11-28T09:10:44;8.90;99.90
30097;DHT22;16915;51.466;3.610;2022-11-28T09:13:10;8.90;99.90
30097;DHT22;16915;51.466;3.610;2022-11-28T09:15:45;8.90;99.90
30097;DHT22;16915;51.466;3.610;2022-11-28T09:18:12;8.90;99.90
30097;DHT22;16915;51.466;3.610;2022-11-28T09:20:38;8.90;99.90
30097;DHT22;16915;51.466;3.610;2022-11-28T09:23:04;8.90;99.90
30097;DHT22;16915;51.466;3.610;2022-11-28T09:25:30;8.90;99.90
30097;DHT22;16915;51.466;3.610;2022-11-28T09:27:58;8.90;99.90
30097;DHT22;16915;51.466;3.610;2022-11-28T09:30:25;8.90;99.90
30097;DHT22;16915;51.466;3.610;2022-11-28T09:32:51;9.00;99.90
30097;DHT22;16915;51.466;3.610;2022-11-28T09:35:17;9.00;99.90
30097;DHT22;16915;51.466;3.610;2022-11-28T09:37:43;9.00;99.90
30097;DHT22;16915;51.466;3.610;2022-11-28T09:40:46;9.00;99.90
30097;DHT22;16915;51.466;3.610;2022-11-28T09:43:36;9.00;99.90
30097;DHT22;16915;51.466;3.610;2022-11-28T09:46:12;9.00;99.90
30097;DHT22;16915;51.466;3.610;2022-11-28T09:48:46;8.90;99.90
30097;DHT22;16915;51.466;3.610;2022-11-28T09:53:56;8.90;99.90
30097;DHT22;16915;51.466;3.610;2022-11-28T09:56:23;8.90;99.90
30097;DHT22;16915;51.466;3.610;2022-11-28T09:58:56;8.90;99.90
30097;DHT22;16915;51.466;3.610;2022-11-28T10:01:47;9.00;99.90
30097;DHT22;16915;51.466;3.610;2022-11-28T10:12:58;9.10;99.90
30097;DHT22;16915;51.466;3.610;2022-11-28T10:18:27;8.90;99.90
30097;DHT22;16915;51.466;3.610;2022-11-28T10:21:00;9.00;99.90
30097;DHT22;16915;51.466;3.610;2022-11-28T10:23:41;8.90;99.90
30097;DHT22;16915;51.466;3.610;2022-11-28T10:26:41;9.00;99.90
30097;DHT22;16915;51.466;3.610;2022-11-28T10:29:26;9.10;99.90
30097;DHT22;16915;51.466;3.610;2022-11-28T10:31:59;9.10;99.90
30097;DHT22;16915;51.466;3.610;2022-11-28T10:34:41;9.10;99.90
30097;DHT22;16915;51.466;3.610;2022-11-28T10:37:25;9.20;99.90
30097;DHT22;16915;51.466;3.610;2022-11-28T10:39:50;9.20;99.90
30097;DHT22;16915;51.466;3.610;2022-11-28T10:56:28;9.50;99.90
30097;DHT22;16915;51.466;3.610;2022-11-28T11:01:43;9.50;99.90
30097;DHT22;16915;51.466;3.610;2022-11-28T11:04:17;9.60;99.90
30097;DHT22;16915;51.466;3.610;2022-11-28T11:09:20;9.90;99.90
30097;DHT22;16915;51.466;3.610;2022-11-28T11:11:56;9.90;99.90
30097;DHT22;16915;51.466;3.610;2022-11-28T11:14:36;9.90;99.90
30097;DHT22;16915;51.466;3.610;2022-11-28T11:17:05;9.80;99.90
30097;DHT22;16915;51.466;3.610;2022-11-28T11:19:39;9.90;99.90
30097;DHT22;16915;51.466;3.610;2022-11-28T11:27:30;10.30;99.90
30097;DHT22;16915;51.466;3.610;2022-11-28T11:29:56;10.40;99.90
30097;DHT22;16915;51.466;3.610;2022-11-28T11:32:27;10.30;99.90
30097;DHT22;16915;51.466;3.610;2022-11-28T11:34:57;10.40;99.90
30097;DHT22;16915;51.466;3.610;2022-11-28T11:37:38;10.40;99.90
30097;DHT22;16915;51.466;3.610;2022-11-28T11:42:59;10.40;99.90
30097;DHT22;16915;51.466;3.610;2022-11-28T11:45:32;10.30;99.90
30097;DHT22;16915;51.466;3.610;2022-11-28T11:48:00;10.30;99.90
30097;DHT22;16915;51.466;3.610;2022-11-28T11:50:29;10.40;99.90
30097;DHT22;16915;51.466;3.610;2022-11-28T11:53:11;10.40;99.90
30097;DHT22;16915;51.466;3.610;2022-11-28T11:55:50;10.50;99.90
30097;DHT22;16915;51.466;3.610;2022-11-28T11:58:24;10.80;99.90
30097;DHT22;16915;51.466;3.610;2022-11-28T12:00:53;10.80;99.90
30097;DHT22;16915;51.466;3.610;2022-11-28T12:03:38;10.70;99.90
30097;DHT22;16915;51.466;3.610;2022-11-28T12:06:16;10.60;99.90
30097;DHT22;16915;51.466;3.610;2022-11-28T12:08:51;10.40;99.90
30097;DHT22;16915;51.466;3.610;2022-11-28T12:11:26;10.30;99.90
30097;DHT22;16915;51.466;3.610;2022-11-28T12:13:53;10.20;99.90
30097;DHT22;16915;51.466;3.610;2022-11-28T12:16:45;9.90;99.90
30097;DHT22;16915;51.466;3.610;2022-11-28T12:20:01;9.80;99.90
30097;DHT22;16915;51.466;3.610;2022-11-28T12:30:39;9.90;99.90
30097;DHT22;16915;51.466;3.610;2022-11-28T12:33:19;9.90;99.90
30097;DHT22;16915;51.466;3.610;2022-11-28T12:36:13;9.80;99.90
30097;DHT22;16915;51.466;3.610;2022-11-28T12:47:20;9.70;99.90
30097;DHT22;16915;51.466;3.610;2022-11-28T12:57:54;9.70;99.90
30097;DHT22;16915;51.466;3.610;2022-11-28T13:00:26;9.60;99.90
30097;DHT22;16915;51.466;3.610;2022-11-28T13:03:35;9.60;99.90
30097;DHT22;16915;51.466;3.610;2022-11-28T13:14:02;9.50;99.90
30097;DHT22;16915;51.466;3.610;2022-11-28T13:22:06;9.40;99.90
30097;DHT22;16915;51.466;3.610;2022-11-28T13:30:44;9.40;99.90
30097;DHT22;16915;51.466;3.610;2022-11-28T13:33:38;9.40;99.90
30097;DHT22;16915;51.466;3.610;2022-11-28T13:36:06;9.40;99.90
30097;DHT22;16915;51.466;3.610;2022-11-28T13:44:49;9.40;99.90
30097;DHT22;16915;51.466;3.610;2022-11-28T13:49:45;9.40;99.90
30097;DHT22;16915;51.466;3.610;2022-11-28T13:54:49;9.50;99.90
30097;DHT22;16915;51.466;3.610;2022-11-28T13:57:18;9.60;99.90
30097;DHT22;16915;51.466;3.610;2022-11-28T13:59:50;9.70;99.90
30097;DHT22;16915;51.466;3.610;2022-11-28T14:03:03;9.70;99.90
30097;DHT22;16915;51.466;3.610;2022-11-28T14:05:37;9.80;99.90
30097;DHT22;16915;51.466;3.610;2022-11-28T14:08:04;9.80;99.90
30097;DHT22;16915;51.466;3.610;2022-11-28T14:13:48;9.90;99.90
30097;DHT22;16915;51.466;3.610;2022-11-28T14:16:25;9.90;99.90
30097;DHT22;16915;51.466;3.610;2022-11-28T14:19:20;9.90;99.90
30097;DHT22;16915;51.466;3.610;2022-11-28T14:25:52;9.90;99.90
30097;DHT22;16915;51.466;3.610;2022-11-28T14:28:33;9.90;99.90
30097;DHT22;16915;51.466;3.610;2022-11-28T14:31:24;9.90;99.90
30097;DHT22;16915;51.466;3.610;2022-11-28T14:34:06;9.90;99.90
30097;DHT22;16915;51.466;3.610;2022-11-28T14:36:37;9.80;99.90
30097;DHT22;16915;51.466;3.610;2022-11-28T14:39:29;9.80;99.90
30097;DHT22;16915;51.466;3.610;2022-11-28T14:44:48;9.70;99.90
30097;DHT22;16915;51.466;3.610;2022-11-28T14:47:27;9.70;99.90
30097;DHT22;16915;51.466;3.610;2022-11-28T14:52:41;9.60;99.90
30097;DHT22;16915;51.466;3.610;2022-11-28T14:55:23;9.60;99.90
30097;DHT22;16915;51.466;3.610;2022-11-28T14:58:03;9.60;99.90
30097;DHT22;16915;51.466;3.610;2022-11-28T15:05:45;9.50;99.90
30097;DHT22;16915;51.466;3.610;2022-11-28T15:14:07;9.40;99.90
30097;DHT22;16915;51.466;3.610;2022-11-28T15:16:37;9.40;99.90
30097;DHT22;16915;51.466;3.610;2022-11-28T15:19:44;9.40;99.90
30097;DHT22;16915;51.466;3.610;2022-11-28T15:22:39;9.30;99.90
30097;DHT22;16915;51.466;3.610;2022-11-28T15:25:17;9.30;99.90
30097;DHT22;16915;51.466;3.610;2022-11-28T15:27:43;9.20;99.90
30097;DHT22;16915;51.466;3.610;2022-11-28T15:30:17;9.20;99.90
30097;DHT22;16915;51.466;3.610;2022-11-28T15:32:45;9.10;99.90
30097;DHT22;16915;51.466;3.610;2022-11-28T15:35:17;9.20;99.90
30097;DHT22;16915;51.466;3.610;2022-11-28T15:37:50;9.10;99.90
30097;DHT22;16915;51.466;3.610;2022-11-28T15:40:24;9.10;99.90
30097;DHT22;16915;51.466;3.610;2022-11-28T15:42:52;9.00;99.90
30097;DHT22;16915;51.466;3.610;2022-11-28T15:45:25;9.00;99.90
30097;DHT22;16915;51.466;3.610;2022-11-28T15:47:53;8.80;99.90
30097;DHT22;16915;51.466;3.610;2022-11-28T15:50:23;8.80;99.90
30097;DHT22;16915;51.466;3.610;2022-11-28T15:55:40;8.70;99.90
30097;DHT22;16915;51.466;3.610;2022-11-28T15:58:19;8.60;99.90
30097;DHT22;16915;51.466;3.610;2022-11-28T16:01:42;8.60;99.90
30097;DHT22;16915;51.466;3.610;2022-11-28T16:04:06;8.50;99.90
30097;DHT22;16915;51.466;3.610;2022-11-28T16:06:37;8.30;99.90
30097;DHT22;16915;51.466;3.610;2022-11-28T16:09:28;8.30;99.90
30097;DHT22;16915;51.466;3.610;2022-11-28T16:11:55;8.20;99.90
30097;DHT22;16915;51.466;3.610;2022-11-28T16:14:34;8.10;99.90
30097;DHT22;16915;51.466;3.610;2022-11-28T16:17:03;8.10;99.90
30097;DHT22;16915;51.466;3.610;2022-11-28T16:19:34;8.10;99.90
30097;DHT22;16915;51.466;3.610;2022-11-28T16:22:10;8.20;99.90
30097;DHT22;16915;51.466;3.610;2022-11-28T16:24:48;8.20;99.90
30097;DHT22;16915;51.466;3.610;2022-11-28T16:29:56;8.30;99.90
30097;DHT22;16915;51.466;3.610;2022-11-28T16:32:36;8.40;99.90
30097;DHT22;16915;51.466;3.610;2022-11-28T16:35:02;8.50;99.90
30097;DHT22;16915;51.466;3.610;2022-11-28T16:37:30;8.50;99.90
30097;DHT22;16915;51.466;3.610;2022-11-28T16:40:04;8.50;99.90
30097;DHT22;16915;51.466;3.610;2022-11-28T16:42:31;8.50;99.90
30097;DHT22;16915;51.466;3.610;2022-11-28T16:45:06;8.50;99.90
30097;DHT22;16915;51.466;3.610;2022-11-28T16:47:33;8.50;99.90
30097;DHT22;16915;51.466;3.610;2022-11-28T16:50:23;8.40;99.90
30097;DHT22;16915;51.466;3.610;2022-11-28T16:52:54;8.40;99.90
30097;DHT22;16915;51.466;3.610;2022-11-28T16:58:21;8.40;99.90
30097;DHT22;16915;51.466;3.610;2022-11-28T17:01:00;8.40;99.90
30097;DHT22;16915;51.466;3.610;2022-11-28T17:06:30;8.40;99.90
30097;DHT22;16915;51.466;3.610;2022-11-28T17:09:03;8.40;99.90
30097;DHT22;16915;51.466;3.610;2022-11-28T17:11:33;8.40;99.90
30097;DHT22;16915;51.466;3.610;2022-11-28T17:13:59;8.50;99.90
30097;DHT22;16915;51.466;3.610;2022-11-28T17:16:26;8.50;99.90
30097;DHT22;16915;51.466;3.610;2022-11-28T17:18:52;8.50;99.90
30097;DHT22;16915;51.466;3.610;2022-11-28T17:24:17;8.60;99.90
30097;DHT22;16915;51.466;3.610;2022-11-28T17:26:45;8.70;99.90
30097;DHT22;16915;51.466;3.610;2022-11-28T17:29:13;8.70;99.90
30097;DHT22;16915;51.466;3.610;2022-11-28T17:31:40;8.70;99.90
30097;DHT22;16915;51.466;3.610;2022-11-28T17:34:26;8.80;99.90
30097;DHT22;16915;51.466;3.610;2022-11-28T17:36:53;8.80;99.90
30097;DHT22;16915;51.466;3.610;2022-11-28T17:39:19;8.80;99.90
30097;DHT22;16915;51.466;3.610;2022-11-28T17:41:45;8.80;99.90
30097;DHT22;16915;51.466;3.610;2022-11-28T17:44:21;8.80;99.90
30097;DHT22;16915;51.466;3.610;2022-11-28T17:46:48;8.80;99.90
30097;DHT22;16915;51.466;3.610;2022-11-28T17:49:14;8.80;99.90
30097;DHT22;16915;51.466;3.610;2022-11-28T17:51:39;8.80;99.90
30097;DHT22;16915;51.466;3.610;2022-11-28T17:54:05;8.80;99.90
30097;DHT22;16915;51.466;3.610;2022-11-28T17:56:31;8.80;99.90
30097;DHT22;16915;51.466;3.610;2022-11-28T17:58:58;8.70;99.90
30097;DHT22;16915;51.466;3.610;2022-11-28T18:01:26;8.70;99.90
30097;DHT22;16915;51.466;3.610;2022-11-28T18:03:52;8.70;99.90
30097;DHT22;16915;51.466;3.610;2022-11-28T18:06:18;8.60;99.90
30097;DHT22;16915;51.466;3.610;2022-11-28T18:08:45;8.60;99.90
30097;DHT22;16915;51.466;3.610;2022-11-28T18:11:13;8.60;99.90
30097;DHT22;16915;51.466;3.610;2022-11-28T18:13:39;8.60;99.90
30097;DHT22;16915;51.466;3.610;2022-11-28T18:16:11;8.60;99.90
30097;DHT22;16915;51.466;3.610;2022-11-28T18:18:37;8.50;99.90
30097;DHT22;16915;51.466;3.610;2022-11-28T18:21:05;8.60;99.90
30097;DHT22;16915;51.466;3.610;2022-11-28T18:23:31;8.50;99.90
30097;DHT22;16915;51.466;3.610;2022-11-28T18:25:57;8.50;99.90
30097;DHT22;16915;51.466;3.610;2022-11-28T18:28:23;8.50;99.90
30097;DHT22;16915;51.466;3.610;2022-11-28T18:30:48;8.40;99.90
30097;DHT22;16915;51.466;3.610;2022-11-28T18:33:15;8.40;99.90
30097;DHT22;16915;51.466;3.610;2022-11-28T18:35:41;8.40;99.90
30097;DHT22;16915;51.466;3.610;2022-11-28T18:38:07;8.40;99.90
30097;DHT22;16915;51.466;3.610;2022-11-28T18:40:35;8.30;99.90
30097;DHT22;16915;51.466;3.610;2022-11-28T18:43:02;8.30;99.90
30097;DHT22;16915;51.466;3.610;2022-11-28T18:45:28;8.30;99.90
30097;DHT22;16915;51.466;3.610;2022-11-28T18:47:54;8.30;99.90
30097;DHT22;16915;51.466;3.610;2022-11-28T18:50:19;8.30;99.90
30097;DHT22;16915;51.466;3.610;2022-11-28T18:52:45;8.40;99.90
30097;DHT22;16915;51.466;3.610;2022-11-28T18:55:11;8.40;99.90
30097;DHT22;16915;51.466;3.610;2022-11-28T18:57:36;8.40;99.90
30097;DHT22;16915;51.466;3.610;2022-11-28T19:00:04;8.40;99.90
30097;DHT22;16915;51.466;3.610;2022-11-28T19:02:30;8.30;99.90
30097;DHT22;16915;51.466;3.610;2022-11-28T19:04:56;8.30;99.90
30097;DHT22;16915;51.466;3.610;2022-11-28T19:07:22;8.30;99.90
30097;DHT22;16915;51.466;3.610;2022-11-28T19:09:48;8.20;99.90
30097;DHT22;16915;51.466;3.610;2022-11-28T19:12:14;8.20;99.90
30097;DHT22;16915;51.466;3.610;2022-11-28T19:14:40;8.20;99.90
30097;DHT22;16915;51.466;3.610;2022-11-28T19:17:05;8.20;99.90